Time;durP1;ratioP1;P1;durP2;ratioP2;P2;SDS_P1;SDS_P2;PMS_P1;PMS_P2;Temp;Humidity;BMP_temperature;BMP_pressure;BME280_temperature;BME280_humidity;BME280_pressure;Samples;Min_cycle;Max_cycle;Signal;HPM_P1;HPM_P2
2023/05/19 00:01:21;;;;;;;1.23;1.17;;;12.50;99.90;;;;;;5032820;28;20200;-65
2023/05/19 00:03:52;;;;;;;1.38;1.27;;;12.40;99.90;;;;;;5032865;28;20832;-65
2023/05/19 00:06:23;;;;;;;1.35;1.25;;;12.40;99.90;;;;;;5033652;28;20204;-66
2023/05/19 00:08:53;;;;;;;1.27;1.20;;;12.30;99.90;;;;;;5033391;28;20213;-66
2023/05/19 00:11:22;;;;;;;1.23;1.20;;;12.40;99.90;;;;;;5032147;28;20609;-65
2023/05/19 00:13:49;;;;;;;1.42;1.33;;;12.30;99.90;;;;;;5036853;28;20208;-65
2023/05/19 00:16:17;;;;;;;1.25;1.20;;;12.20;99.90;;;;;;5040433;28;20216;-64
2023/05/19 00:18:44;;;;;;;1.10;1.10;;;12.20;99.90;;;;;;5037800;28;20248;-65
2023/05/19 00:21:11;;;;;;;1.42;1.33;;;12.20;99.90;;;;;;5034435;28;20215;-69
2023/05/19 00:23:37;;;;;;;1.48;1.38;;;12.20;99.90;;;;;;5033498;28;20208;-65
2023/05/19 00:26:04;;;;;;;1.35;1.25;;;12.20;99.90;;;;;;5033361;28;20201;-66
2023/05/19 00:28:32;;;;;;;1.25;1.17;;;12.30;99.90;;;;;;5033066;28;20232;-65
2023/05/19 00:31:00;;;;;;;1.20;1.20;;;12.30;99.90;;;;;;5032299;28;20382;-65
2023/05/19 00:33:26;;;;;;;1.08;1.08;;;12.20;99.90;;;;;;5033067;28;20282;-66
2023/05/19 00:35:53;;;;;;;1.42;1.33;;;12.20;99.90;;;;;;5033279;28;20270;-67
2023/05/19 00:38:20;;;;;;;1.30;1.20;;;12.30;99.90;;;;;;5033169;28;20315;-65
2023/05/19 00:40:47;;;;;;;1.00;1.00;;;12.20;99.90;;;;;;5032404;28;20200;-65
2023/05/19 00:43:14;;;;;;;1.00;1.00;;;12.20;99.90;;;;;;5033071;28;20295;-65
2023/05/19 00:45:42;;;;;;;1.20;1.10;;;12.20;99.90;;;;;;5032636;28;20207;-65
2023/05/19 00:48:09;;;;;;;1.25;1.20;;;12.20;99.90;;;;;;5032490;28;20232;-64
2023/05/19 00:50:36;;;;;;;1.10;1.10;;;12.20;99.90;;;;;;5033912;28;20228;-65
2023/05/19 00:53:03;;;;;;;1.20;1.20;;;12.20;99.90;;;;;;5052532;28;20216;-67
2023/05/19 00:55:31;;;;;;;0.98;0.98;;;12.20;99.90;;;;;;5053875;28;20725;-65
2023/05/19 00:57:59;;;;;;;1.20;1.10;;;12.20;99.90;;;;;;5052130;28;20224;-67
2023/05/19 01:00:25;;;;;;;1.00;1.00;;;12.10;99.90;;;;;;5051363;28;20200;-65
2023/05/19 01:02:54;;;;;;;1.30;1.20;;;12.10;99.90;;;;;;5052469;28;20206;-64
2023/05/19 01:05:22;;;;;;;1.10;1.10;;;12.00;99.90;;;;;;5051849;28;20231;-65
2023/05/19 01:07:52;;;;;;;1.02;1.00;;;12.10;99.90;;;;;;5052188;28;20228;-65
2023/05/19 01:10:19;;;;;;;1.20;1.20;;;12.00;99.90;;;;;;5050929;28;20231;-65
2023/05/19 01:12:47;;;;;;;2.05;1.33;;;12.00;99.90;;;;;;5051807;28;20204;-65
2023/05/19 01:15:14;;;;;;;1.35;1.10;;;11.90;99.90;;;;;;5052070;28;20314;-65
2023/05/19 01:17:49;;;;;;;1.13;1.13;;;11.90;99.90;;;;;;5051946;28;20219;-66
2023/05/19 01:20:24;;;;;;;1.00;1.00;;;11.90;99.90;;;;;;5050908;28;20208;-67
2023/05/19 01:23:22;;;;;;;1.40;1.30;;;11.90;99.90;;;;;;5050432;28;20233;-64
2023/05/19 01:26:18;;;;;;;1.30;1.20;;;11.90;99.90;;;;;;5051600;28;20192;-64
2023/05/19 01:29:22;;;;;;;1.27;1.17;;;11.80;99.90;;;;;;5051518;28;20223;-66
2023/05/19 01:31:52;;;;;;;1.10;1.10;;;11.70;99.90;;;;;;5051471;28;20200;-65
2023/05/19 01:34:21;;;;;;;1.20;1.20;;;11.70;99.90;;;;;;5051441;28;20187;-65
2023/05/19 01:36:51;;;;;;;1.40;1.30;;;11.80;99.90;;;;;;5051174;28;20714;-65
2023/05/19 01:39:19;;;;;;;1.63;1.00;;;11.90;99.90;;;;;;5050723;28;20307;-66
2023/05/19 01:41:47;;;;;;;1.40;1.30;;;11.80;99.90;;;;;;5050846;28;20236;-66
2023/05/19 01:44:15;;;;;;;1.10;1.10;;;11.80;99.90;;;;;;5051739;28;20248;-65
2023/05/19 01:46:42;;;;;;;1.25;1.15;;;11.80;99.90;;;;;;5051193;28;20220;-66
2023/05/19 01:49:10;;;;;;;1.63;1.30;;;11.70;99.90;;;;;;5050940;28;20227;-65
2023/05/19 01:51:38;;;;;;;1.13;1.13;;;11.70;99.90;;;;;;5051176;28;20263;-65
2023/05/19 01:54:05;;;;;;;1.20;1.17;;;11.70;99.90;;;;;;5047219;28;20203;-65
2023/05/19 01:56:38;;;;;;;1.50;1.40;;;11.80;99.90;;;;;;5051460;28;20214;-64
2023/05/19 01:59:21;;;;;;;0.90;0.90;;;11.90;99.90;;;;;;5051182;28;20748;-64
2023/05/19 02:01:53;;;;;;;1.30;1.20;;;11.90;99.90;;;;;;5051262;28;20204;-65
2023/05/19 02:04:29;;;;;;;1.25;1.17;;;11.90;99.90;;;;;;5052342;28;20192;-64
2023/05/19 02:07:03;;;;;;;0.98;0.98;;;11.90;99.90;;;;;;5055191;28;20616;-64
2023/05/19 02:09:38;;;;;;;1.13;1.00;;;11.90;99.90;;;;;;5050751;28;20212;-65
2023/05/19 02:12:11;;;;;;;1.20;1.20;;;12.00;99.90;;;;;;5050895;28;20214;-66
2023/05/19 02:14:43;;;;;;;1.00;1.00;;;12.00;99.90;;;;;;5050755;28;20562;-65
2023/05/19 02:17:12;;;;;;;1.00;1.00;;;12.00;99.90;;;;;;5050843;28;20227;-65
2023/05/19 02:19:42;;;;;;;1.20;1.10;;;12.00;99.90;;;;;;5050523;28;20683;-65
2023/05/19 02:22:09;;;;;;;1.20;1.10;;;12.00;99.90;;;;;;5051212;28;20199;-64
2023/05/19 02:24:36;;;;;;;1.10;1.00;;;12.00;99.90;;;;;;5050592;28;20204;-65
2023/05/19 02:27:03;;;;;;;1.30;1.20;;;11.90;99.90;;;;;;5050298;28;20232;-65
2023/05/19 02:29:30;;;;;;;1.17;1.17;;;11.90;99.90;;;;;;5049808;28;20277;-64
2023/05/19 02:31:57;;;;;;;1.40;1.40;;;11.90;99.90;;;;;;5050534;28;20680;-65
2023/05/19 02:34:24;;;;;;;1.40;1.30;;;11.80;99.90;;;;;;5050561;28;20208;-65
2023/05/19 02:36:52;;;;;;;1.10;1.10;;;11.80;99.90;;;;;;5052870;28;20228;-65
2023/05/19 02:39:19;;;;;;;1.33;1.20;;;11.80;99.90;;;;;;5051834;28;20265;-65
2023/05/19 02:41:46;;;;;;;1.35;1.25;;;11.80;99.90;;;;;;5052823;28;20298;-65
2023/05/19 02:44:13;;;;;;;1.10;1.10;;;11.80;99.90;;;;;;5053038;28;20873;-65
2023/05/19 02:46:39;;;;;;;1.23;1.20;;;11.80;99.90;;;;;;5052347;28;20212;-66
2023/05/19 02:49:07;;;;;;;1.20;1.20;;;11.90;99.90;;;;;;5051485;28;20192;-65
2023/05/19 02:51:33;;;;;;;1.42;1.30;;;11.90;99.90;;;;;;5051730;28;20206;-65
2023/05/19 02:54:02;;;;;;;1.30;1.20;;;11.80;99.90;;;;;;5051196;28;20204;-65
2023/05/19 02:56:28;;;;;;;1.48;1.38;;;11.70;99.90;;;;;;5050993;28;20246;-65
2023/05/19 02:58:55;;;;;;;1.40;1.30;;;11.80;99.90;;;;;;5051066;28;20574;-65
2023/05/19 03:01:22;;;;;;;1.45;1.35;;;11.90;99.90;;;;;;5049830;28;20215;-65
2023/05/19 03:03:49;;;;;;;1.25;1.23;;;11.90;99.90;;;;;;5050515;28;20231;-65
2023/05/19 03:06:16;;;;;;;1.50;1.40;;;11.90;99.90;;;;;;5050780;28;20286;-65
2023/05/19 03:08:43;;;;;;;1.20;1.20;;;11.80;99.90;;;;;;5050300;28;20291;-64
2023/05/19 03:11:11;;;;;;;1.55;1.45;;;11.80;99.90;;;;;;5053370;28;20353;-66
2023/05/19 03:13:38;;;;;;;1.10;1.10;;;11.70;99.90;;;;;;5053973;28;20210;-65
2023/05/19 03:16:06;;;;;;;1.15;1.15;;;11.70;99.90;;;;;;5053611;28;20223;-65
2023/05/19 03:18:33;;;;;;;1.30;1.20;;;11.80;99.90;;;;;;5055681;28;20228;-65
2023/05/19 03:21:00;;;;;;;1.55;1.45;;;11.90;99.90;;;;;;5064424;28;20271;-65
2023/05/19 03:23:27;;;;;;;1.35;1.25;;;11.80;99.90;;;;;;5059950;28;20268;-65
2023/05/19 03:25:55;;;;;;;1.20;1.20;;;11.80;99.90;;;;;;5064032;28;20210;-64
2023/05/19 03:28:23;;;;;;;1.52;1.20;;;11.70;99.90;;;;;;5065976;28;20220;-65
2023/05/19 03:30:50;;;;;;;1.15;1.10;;;11.60;99.90;;;;;;5056751;28;20226;-64
2023/05/19 03:33:17;;;;;;;1.30;1.20;;;11.60;99.90;;;;;;5052266;28;20204;-65
2023/05/19 03:35:44;;;;;;;1.48;1.38;;;11.60;99.90;;;;;;5050335;28;20212;-65
2023/05/19 03:38:11;;;;;;;1.30;1.20;;;11.50;99.90;;;;;;5050324;28;20686;-65
2023/05/19 03:40:37;;;;;;;1.35;1.23;;;11.60;99.90;;;;;;5049619;28;20216;-66
2023/05/19 03:43:04;;;;;;;1.38;1.27;;;11.60;99.90;;;;;;5050579;28;20214;-65
2023/05/19 03:45:32;;;;;;;1.50;1.40;;;11.60;99.90;;;;;;5051012;28;20261;-65
2023/05/19 03:48:00;;;;;;;1.20;1.20;;;11.60;99.90;;;;;;5053685;28;20370;-65
2023/05/19 03:50:27;;;;;;;1.10;1.10;;;11.60;99.90;;;;;;5052891;28;20247;-65
2023/05/19 03:52:54;;;;;;;1.95;1.38;;;11.70;99.90;;;;;;5053739;28;20218;-66
2023/05/19 03:55:21;;;;;;;1.35;1.30;;;11.70;99.90;;;;;;5053660;28;20204;-66
2023/05/19 03:57:48;;;;;;;1.40;1.30;;;11.70;99.90;;;;;;5053846;28;20705;-66
2023/05/19 04:00:16;;;;;;;1.27;1.27;;;11.70;99.90;;;;;;5054067;28;20666;-65
2023/05/19 04:02:44;;;;;;;1.33;1.23;;;11.60;99.90;;;;;;5053338;28;20690;-64
2023/05/19 04:05:11;;;;;;;1.40;1.30;;;11.50;99.90;;;;;;5053165;28;20208;-64
2023/05/19 04:07:38;;;;;;;1.23;1.23;;;11.50;99.90;;;;;;5053554;28;20270;-64
2023/05/19 04:10:05;;;;;;;1.42;1.33;;;11.40;99.90;;;;;;5052753;28;20749;-64
2023/05/19 04:12:32;;;;;;;1.55;1.45;;;11.50;99.90;;;;;;5052926;28;20214;-64
2023/05/19 04:14:59;;;;;;;1.10;1.10;;;11.40;99.90;;;;;;5054648;28;20214;-64
2023/05/19 04:17:26;;;;;;;1.67;1.40;;;11.30;99.90;;;;;;5056784;28;20230;-66
2023/05/19 04:19:55;;;;;;;1.08;1.08;;;11.40;99.90;;;;;;5035239;28;20212;-65
2023/05/19 04:22:22;;;;;;;1.45;1.35;;;11.30;99.90;;;;;;5032474;28;20222;-65
2023/05/19 04:24:50;;;;;;;1.58;1.48;;;11.30;99.90;;;;;;5033120;28;20188;-64
2023/05/19 04:27:17;;;;;;;1.40;1.30;;;11.30;99.90;;;;;;5033364;28;20224;-64
2023/05/19 04:29:44;;;;;;;2.13;1.33;;;11.30;99.90;;;;;;5032111;28;20315;-64
2023/05/19 04:32:16;;;;;;;1.42;1.33;;;11.30;99.90;;;;;;5032901;28;20640;-67
2023/05/19 04:34:44;;;;;;;1.45;1.35;;;11.30;99.90;;;;;;5032544;28;20476;-65
2023/05/19 04:37:12;;;;;;;1.23;1.23;;;11.30;99.90;;;;;;5032765;28;20221;-65
2023/05/19 04:39:41;;;;;;;1.33;1.25;;;11.20;99.90;;;;;;5031775;28;20208;-65
2023/05/19 04:42:09;;;;;;;1.33;1.30;;;11.30;99.90;;;;;;5032737;28;20667;-64
2023/05/19 04:44:36;;;;;;;1.70;1.60;;;11.40;99.90;;;;;;5032774;28;20197;-64
2023/05/19 04:47:05;;;;;;;1.25;1.23;;;11.50;99.90;;;;;;5032120;28;20236;-64
2023/05/19 04:49:31;;;;;;;1.10;1.10;;;11.40;99.90;;;;;;5031453;28;20304;-65
2023/05/19 04:51:58;;;;;;;1.42;1.30;;;11.50;99.90;;;;;;5032447;28;20218;-65
2023/05/19 04:54:26;;;;;;;1.30;1.20;;;11.50;99.90;;;;;;5032500;28;20230;-65
2023/05/19 04:56:53;;;;;;;1.40;1.30;;;11.40;99.90;;;;;;5031986;28;20233;-64
2023/05/19 04:59:22;;;;;;;1.20;1.10;;;11.40;99.90;;;;;;5032248;28;20219;-63
2023/05/19 05:01:48;;;;;;;1.38;1.33;;;11.40;99.90;;;;;;5028185;28;20215;-63
2023/05/19 05:04:15;;;;;;;1.30;1.20;;;11.50;99.90;;;;;;5029096;28;20211;-64
2023/05/19 05:06:46;;;;;;;1.20;1.20;;;11.50;99.90;;;;;;5031325;28;20242;-64
2023/05/19 05:09:13;;;;;;;1.42;1.33;;;11.50;99.90;;;;;;5024089;28;20197;-63
2023/05/19 05:11:42;;;;;;;1.30;1.20;;;11.50;99.90;;;;;;5029788;28;20232;-64
2023/05/19 05:14:09;;;;;;;1.10;1.10;;;11.50;99.90;;;;;;5031769;28;20283;-63
2023/05/19 05:16:37;;;;;;;1.47;1.37;;;11.40;99.90;;;;;;5030494;28;20219;-65
2023/05/19 05:19:04;;;;;;;1.40;1.30;;;11.40;99.90;;;;;;5032875;28;20291;-62
2023/05/19 05:21:31;;;;;;;1.00;1.00;;;11.40;99.90;;;;;;5032314;28;20734;-63
2023/05/19 05:23:59;;;;;;;1.50;1.40;;;11.40;99.90;;;;;;5031593;28;20301;-63
2023/05/19 05:26:30;;;;;;;1.37;1.27;;;11.50;99.90;;;;;;5029388;28;20204;-64
2023/05/19 05:28:58;;;;;;;1.20;1.10;;;11.50;99.90;;;;;;5028856;28;20228;-64
2023/05/19 05:31:25;;;;;;;1.50;1.40;;;11.50;99.90;;;;;;5030529;28;20266;-64
2023/05/19 05:33:52;;;;;;;1.20;1.13;;;11.60;99.90;;;;;;5031060;28;20212;-64
2023/05/19 05:36:19;;;;;;;1.50;1.30;;;11.60;99.90;;;;;;5030812;28;20272;-64
2023/05/19 05:38:45;;;;;;;1.63;1.40;;;11.60;99.90;;;;;;5031036;28;20300;-64
2023/05/19 05:41:12;;;;;;;1.42;1.30;;;11.70;99.90;;;;;;5030051;28;20209;-64
2023/05/19 05:43:39;;;;;;;1.33;1.23;;;11.70;99.90;;;;;;5028912;28;20318;-64
2023/05/19 05:46:07;;;;;;;1.20;1.20;;;11.70;99.90;;;;;;5031236;28;20200;-64
2023/05/19 05:48:35;;;;;;;1.17;1.17;;;11.90;99.90;;;;;;5030198;28;20243;-64
2023/05/19 05:51:02;;;;;;;1.63;1.50;;;12.10;99.90;;;;;;5030320;28;20221;-64
2023/05/19 05:53:31;;;;;;;1.50;1.40;;;12.30;99.90;;;;;;5031035;28;20566;-64
2023/05/19 05:55:59;;;;;;;1.10;1.10;;;12.40;99.90;;;;;;5023524;28;20207;-62
2023/05/19 05:58:26;;;;;;;1.40;1.30;;;12.60;99.90;;;;;;5030350;28;20316;-63
2023/05/19 06:00:56;;;;;;;1.27;1.23;;;12.70;99.90;;;;;;5028053;28;20197;-62
2023/05/19 06:03:24;;;;;;;1.43;1.37;;;12.80;99.90;;;;;;5031062;28;20203;-63
2023/05/19 06:05:51;;;;;;;1.57;1.47;;;12.90;99.90;;;;;;5030990;28;20208;-64
2023/05/19 06:08:18;;;;;;;1.40;1.30;;;13.00;99.90;;;;;;5030784;28;20226;-62
2023/05/19 06:10:45;;;;;;;1.50;1.40;;;13.10;99.90;;;;;;5030811;28;20256;-63
2023/05/19 06:13:11;;;;;;;1.05;1.05;;;13.30;99.90;;;;;;5031887;28;20212;-62
2023/05/19 06:15:38;;;;;;;1.30;1.20;;;13.40;99.90;;;;;;5032040;28;20200;-63
2023/05/19 06:18:05;;;;;;;1.20;1.20;;;13.50;99.90;;;;;;5031109;28;20319;-62
2023/05/19 06:20:34;;;;;;;1.65;1.42;;;13.70;99.90;;;;;;5031045;28;20268;-63
2023/05/19 06:23:02;;;;;;;1.10;1.10;;;13.70;99.90;;;;;;5031468;28;20224;-63
2023/05/19 06:25:29;;;;;;;1.83;1.43;;;13.70;99.90;;;;;;5032049;28;20211;-62
2023/05/19 06:27:56;;;;;;;1.20;1.20;;;13.80;99.90;;;;;;5031577;28;20673;-63
2023/05/19 06:30:23;;;;;;;1.73;1.45;;;13.90;99.90;;;;;;5031338;28;20220;-66
2023/05/19 06:32:50;;;;;;;1.35;1.27;;;14.00;99.90;;;;;;5032101;28;20208;-63
2023/05/19 06:35:17;;;;;;;1.38;1.27;;;14.10;99.90;;;;;;5032653;28;20230;-63
2023/05/19 06:37:45;;;;;;;1.30;1.20;;;14.00;99.90;;;;;;5033356;28;20228;-63
2023/05/19 06:40:13;;;;;;;1.33;1.23;;;14.00;99.90;;;;;;5039286;28;20703;-63
2023/05/19 06:42:39;;;;;;;1.40;1.30;;;14.10;99.90;;;;;;5034405;28;20197;-63
2023/05/19 06:45:07;;;;;;;1.43;1.33;;;14.10;99.90;;;;;;5031235;28;20577;-64
2023/05/19 06:47:35;;;;;;;1.13;1.13;;;14.20;99.90;;;;;;5030295;28;20671;-62
2023/05/19 06:50:01;;;;;;;1.33;1.23;;;14.30;99.90;;;;;;5030140;28;20212;-62
2023/05/19 06:52:28;;;;;;;1.13;1.13;;;14.50;99.90;;;;;;5030516;28;20256;-62
2023/05/19 06:54:56;;;;;;;1.80;1.40;;;14.40;99.90;;;;;;5030972;28;20296;-62
2023/05/19 06:57:24;;;;;;;1.70;1.50;;;14.40;99.90;;;;;;5031117;28;20315;-63
2023/05/19 06:59:50;;;;;;;1.50;1.40;;;14.50;99.90;;;;;;5030363;28;20562;-63
2023/05/19 07:02:17;;;;;;;1.40;1.30;;;14.50;99.90;;;;;;5043528;28;20204;-63
2023/05/19 07:04:44;;;;;;;1.60;1.50;;;14.80;99.90;;;;;;5050085;28;20204;-62
2023/05/19 07:07:11;;;;;;;1.40;1.30;;;14.90;99.90;;;;;;5051834;28;20323;-62
2023/05/19 07:09:38;;;;;;;1.40;1.23;;;15.10;99.90;;;;;;5037774;28;20247;-63
2023/05/19 07:12:07;;;;;;;1.30;1.30;;;15.20;99.90;;;;;;5039229;28;20212;-64
2023/05/19 07:14:35;;;;;;;1.55;1.40;;;15.20;99.90;;;;;;5037804;28;20200;-63
2023/05/19 07:17:02;;;;;;;1.38;1.27;;;15.10;99.90;;;;;;5038709;28;20247;-64
2023/05/19 07:19:29;;;;;;;1.43;1.33;;;15.20;99.90;;;;;;5037904;28;20831;-63
2023/05/19 07:21:58;;;;;;;1.45;1.35;;;15.40;99.90;;;;;;5018228;28;20190;-63
2023/05/19 07:24:26;;;;;;;1.13;1.13;;;15.30;99.90;;;;;;5025425;28;20204;-63
2023/05/19 07:26:54;;;;;;;1.35;1.30;;;15.10;99.90;;;;;;5034650;28;20228;-63
2023/05/19 07:29:22;;;;;;;1.20;1.20;;;15.10;99.90;;;;;;5034200;28;20236;-63
2023/05/19 07:31:52;;;;;;;1.10;1.10;;;15.00;99.90;;;;;;5034818;28;20710;-63
2023/05/19 07:34:19;;;;;;;1.30;1.20;;;15.00;99.90;;;;;;5035657;28;20205;-63
2023/05/19 07:36:46;;;;;;;1.50;1.40;;;15.00;99.90;;;;;;5034741;28;20254;-63
2023/05/19 07:39:13;;;;;;;1.33;1.23;;;15.00;99.90;;;;;;5034300;28;20209;-63
2023/05/19 07:41:40;;;;;;;1.38;1.27;;;15.20;99.90;;;;;;5034831;28;20203;-63
2023/05/19 07:44:07;;;;;;;2.75;1.70;;;15.20;99.90;;;;;;5033509;28;20252;-64
2023/05/19 07:46:36;;;;;;;1.13;1.13;;;15.30;99.90;;;;;;5027939;28;20213;-64
2023/05/19 07:49:03;;;;;;;1.20;1.20;;;15.40;99.90;;;;;;5031284;28;20205;-64
2023/05/19 07:51:30;;;;;;;1.40;1.30;;;15.50;99.90;;;;;;5031482;28;20227;-63
2023/05/19 07:53:57;;;;;;;1.23;1.17;;;15.70;99.90;;;;;;5015628;28;20447;-63
2023/05/19 07:56:24;;;;;;;1.20;1.20;;;15.70;99.90;;;;;;5032499;28;20196;-64
2023/05/19 07:58:51;;;;;;;1.27;1.20;;;15.70;99.90;;;;;;5033526;28;20200;-64
2023/05/19 08:01:18;;;;;;;1.20;1.20;;;15.80;99.90;;;;;;5034893;28;20212;-64
2023/05/19 08:03:46;;;;;;;1.60;1.20;;;15.90;99.90;;;;;;5033915;28;20758;-64
2023/05/19 08:06:13;;;;;;;1.38;1.30;;;16.30;99.90;;;;;;5033391;28;20207;-64
2023/05/19 08:08:40;;;;;;;1.50;1.40;;;16.20;99.90;;;;;;5033269;28;20228;-64
2023/05/19 08:11:07;;;;;;;1.17;1.17;;;16.20;99.90;;;;;;5033922;28;20641;-64
2023/05/19 08:13:34;;;;;;;1.25;1.20;;;16.10;99.90;;;;;;5049598;28;20235;-64
2023/05/19 08:16:01;;;;;;;1.40;1.30;;;16.20;99.90;;;;;;5055471;28;20667;-63
2023/05/19 08:18:29;;;;;;;1.23;1.20;;;16.20;99.90;;;;;;5016733;28;20225;-64
2023/05/19 08:20:57;;;;;;;1.57;1.47;;;16.30;99.90;;;;;;5032517;28;20189;-63
2023/05/19 08:23:24;;;;;;;1.43;1.30;;;16.30;99.90;;;;;;5027231;28;20204;-64
2023/05/19 08:25:51;;;;;;;2.40;1.20;;;16.50;99.90;;;;;;5033083;28;20197;-64
2023/05/19 08:28:18;;;;;;;1.38;1.27;;;16.40;99.90;;;;;;5033229;28;20319;-65
2023/05/19 08:30:45;;;;;;;1.43;1.33;;;16.50;99.90;;;;;;5032745;28;20216;-63
2023/05/19 08:33:11;;;;;;;1.80;1.30;;;16.60;99.90;;;;;;5032617;28;20208;-65
2023/05/19 08:35:38;;;;;;;1.23;1.20;;;16.70;99.90;;;;;;5032710;28;20208;-64
2023/05/19 08:38:06;;;;;;;1.20;1.10;;;16.80;99.90;;;;;;5032261;28;20315;-64
2023/05/19 08:40:34;;;;;;;1.42;1.33;;;16.90;99.90;;;;;;5032208;28;20215;-63
2023/05/19 08:43:01;;;;;;;1.08;1.08;;;16.90;99.90;;;;;;5032279;28;20220;-64
2023/05/19 08:45:28;;;;;;;1.30;1.20;;;16.90;99.90;;;;;;5032825;28;20581;-65
2023/05/19 08:47:56;;;;;;;1.00;1.00;;;16.90;99.90;;;;;;5032272;28;20238;-64
2023/05/19 08:50:29;;;;;;;1.38;1.27;;;16.80;99.90;;;;;;5031443;28;20211;-63
2023/05/19 08:53:01;;;;;;;1.20;1.10;;;16.90;99.90;;;;;;5032149;28;20299;-63
2023/05/19 08:55:35;;;;;;;1.40;1.30;;;16.90;99.90;;;;;;5032552;28;20192;-64
2023/05/19 08:58:04;;;;;;;1.48;1.38;;;16.90;99.90;;;;;;5032494;28;20224;-64
2023/05/19 09:00:33;;;;;;;1.00;1.00;;;17.00;99.90;;;;;;5033758;28;20247;-63
2023/05/19 09:03:01;;;;;;;1.40;1.30;;;17.10;99.90;;;;;;5033739;28;20335;-64
2023/05/19 09:05:28;;;;;;;2.67;1.20;;;17.00;99.90;;;;;;5034975;28;20208;-62
2023/05/19 09:07:55;;;;;;;1.00;0.98;;;17.00;99.90;;;;;;5044316;28;20311;-63
2023/05/19 09:10:22;;;;;;;1.23;1.20;;;17.00;99.90;;;;;;5043833;28;20239;-64
2023/05/19 09:12:51;;;;;;;1.50;1.40;;;17.00;99.90;;;;;;5038813;28;20315;-63
2023/05/19 09:15:18;;;;;;;1.50;1.37;;;16.90;99.90;;;;;;5032222;28;20219;-65
2023/05/19 09:17:46;;;;;;;1.00;1.00;;;16.90;99.90;;;;;;5034578;28;20252;-63
2023/05/19 09:20:15;;;;;;;1.20;1.10;;;17.00;99.90;;;;;;5033345;28;20205;-64
2023/05/19 09:22:44;;;;;;;1.30;1.20;;;17.10;99.90;;;;;;5033404;28;20308;-63
2023/05/19 09:25:22;;;;;;;1.63;1.20;;;17.20;99.90;;;;;;5031809;28;20292;-63
2023/05/19 09:27:50;;;;;;;1.70;1.20;;;17.30;99.90;;;;;;5031330;28;20330;-63
2023/05/19 09:30:18;;;;;;;1.15;1.08;;;17.30;99.90;;;;;;5031027;28;20212;-63
2023/05/19 09:32:45;;;;;;;2.28;1.27;;;17.40;99.90;;;;;;5031654;28;20663;-63
2023/05/19 09:35:15;;;;;;;1.90;1.17;;;17.30;99.90;;;;;;5031402;28;20212;-62
2023/05/19 09:37:43;;;;;;;1.20;1.13;;;17.40;99.90;;;;;;5031620;28;20280;-65
2023/05/19 09:40:11;;;;;;;1.98;1.38;;;17.40;99.90;;;;;;5030918;28;20227;-64
2023/05/19 09:42:39;;;;;;;1.30;1.20;;;17.40;99.90;;;;;;5031220;28;20693;-64
2023/05/19 09:45:08;;;;;;;1.13;1.10;;;17.50;99.90;;;;;;5027346;28;20204;-64
2023/05/19 09:47:37;;;;;;;1.67;1.20;;;17.50;99.90;;;;;;5033094;28;20236;-64
2023/05/19 09:50:07;;;;;;;1.23;1.13;;;17.40;99.90;;;;;;5031155;28;20208;-63
2023/05/19 09:52:36;;;;;;;1.20;1.20;;;17.50;99.90;;;;;;5032358;28;20603;-65
2023/05/19 09:55:05;;;;;;;1.03;1.00;;;17.50;99.90;;;;;;5032826;28;20216;-63
2023/05/19 09:57:35;;;;;;;1.10;1.10;;;17.50;99.90;;;;;;5031145;28;20228;-63
2023/05/19 10:00:10;;;;;;;1.30;1.20;;;17.60;99.90;;;;;;5031368;28;20196;-63
2023/05/19 10:02:41;;;;;;;1.20;1.10;;;17.60;99.90;;;;;;5031997;28;20206;-63
2023/05/19 10:05:15;;;;;;;1.52;1.10;;;17.60;99.90;;;;;;5035045;28;20266;-63
2023/05/19 10:07:44;;;;;;;1.23;1.15;;;17.60;99.90;;;;;;5017501;28;20275;-61
2023/05/19 10:10:13;;;;;;;1.20;1.10;;;17.50;99.90;;;;;;5026638;28;20223;-63
2023/05/19 10:12:41;;;;;;;1.50;1.10;;;17.40;99.90;;;;;;5027388;28;20217;-62
2023/05/19 10:15:13;;;;;;;0.80;0.80;;;17.40;99.90;;;;;;5032086;28;20205;-64
2023/05/19 10:17:42;;;;;;;1.23;1.13;;;17.40;99.90;;;;;;5029336;28;20274;-65
2023/05/19 10:20:11;;;;;;;1.20;1.20;;;17.60;99.90;;;;;;5030921;28;20288;-65
2023/05/19 10:22:38;;;;;;;1.00;1.00;;;17.60;99.90;;;;;;5031326;28;20218;-64
2023/05/19 10:25:06;;;;;;;1.10;1.00;;;17.50;99.90;;;;;;5030237;28;20207;-64
2023/05/19 10:27:35;;;;;;;0.90;0.90;;;17.60;99.90;;;;;;5031446;28;20228;-63
2023/05/19 10:30:09;;;;;;;0.80;0.80;;;17.60;99.90;;;;;;5030798;28;20208;-64
2023/05/19 10:32:38;;;;;;;0.80;0.80;;;17.80;99.90;;;;;;5026421;28;20219;-65
2023/05/19 10:35:33;;;;;;;0.93;0.93;;;17.70;99.90;;;;;;5028449;28;20284;-63
2023/05/19 10:38:11;;;;;;;0.90;0.90;;;17.70;99.90;;;;;;5029209;28;20221;-63
2023/05/19 10:40:50;;;;;;;0.90;0.90;;;17.70;99.90;;;;;;5025515;28;20226;-63
2023/05/19 10:43:26;;;;;;;1.08;1.08;;;17.70;99.90;;;;;;5031010;28;20648;-64
2023/05/19 10:45:54;;;;;;;1.00;0.98;;;17.70;99.90;;;;;;5027135;28;20208;-63
2023/05/19 10:48:21;;;;;;;1.33;1.27;;;17.70;99.90;;;;;;5031143;28;20777;-63
2023/05/19 10:50:53;;;;;;;2.50;1.10;;;17.70;99.90;;;;;;5031591;28;20591;-64
2023/05/19 10:53:21;;;;;;;1.30;1.20;;;17.70;99.90;;;;;;5030279;28;20243;-64
2023/05/19 10:55:57;;;;;;;0.90;0.90;;;17.70;99.90;;;;;;5031897;28;20682;-65
2023/05/19 10:58:38;;;;;;;1.00;1.00;;;17.80;99.90;;;;;;5035488;28;20282;-65
2023/05/19 11:01:09;;;;;;;1.05;1.05;;;17.80;99.90;;;;;;5034120;28;20208;-63
2023/05/19 11:03:47;;;;;;;1.00;1.00;;;17.90;99.90;;;;;;5035394;28;20291;-64
2023/05/19 11:06:20;;;;;;;1.38;1.10;;;18.00;99.90;;;;;;5035836;28;20208;-64
2023/05/19 11:08:52;;;;;;;0.88;0.88;;;18.00;99.90;;;;;;5033651;28;20341;-63
2023/05/19 11:11:18;;;;;;;1.30;1.25;;;17.80;99.90;;;;;;5028585;28;20262;-65
2023/05/19 11:13:48;;;;;;;1.33;1.23;;;17.80;99.90;;;;;;5033166;28;20255;-63
2023/05/19 11:16:18;;;;;;;0.90;0.90;;;17.90;99.90;;;;;;5034342;28;20200;-63
2023/05/19 11:18:49;;;;;;;1.10;1.00;;;17.80;99.90;;;;;;5034707;28;20228;-64
2023/05/19 11:21:16;;;;;;;1.67;1.50;;;17.80;99.90;;;;;;5033565;28;20234;-64
2023/05/19 11:23:44;;;;;;;0.90;0.90;;;17.90;99.90;;;;;;5032953;28;20646;-63
2023/05/19 11:26:12;;;;;;;0.90;0.90;;;17.90;99.90;;;;;;5033358;28;20225;-63
2023/05/19 11:28:40;;;;;;;0.82;0.82;;;17.90;99.90;;;;;;5033590;28;20221;-63
2023/05/19 11:31:09;;;;;;;0.90;0.90;;;17.90;99.90;;;;;;5032709;28;20204;-62
2023/05/19 11:33:36;;;;;;;1.00;1.00;;;17.80;99.90;;;;;;5032860;28;20263;-62
2023/05/19 11:36:04;;;;;;;0.88;0.88;;;17.70;99.90;;;;;;5033043;28;20197;-63
2023/05/19 11:38:32;;;;;;;0.97;0.87;;;17.70;99.90;;;;;;5033551;28;20232;-63
2023/05/19 11:41:00;;;;;;;0.90;0.90;;;17.70;99.90;;;;;;5025685;28;20287;-63
2023/05/19 11:43:27;;;;;;;0.90;0.90;;;17.70;99.90;;;;;;5033871;28;20201;-62
2023/05/19 11:45:55;;;;;;;1.00;1.00;;;17.80;99.90;;;;;;5033821;28;20240;-64
2023/05/19 11:48:22;;;;;;;1.05;1.05;;;17.90;99.90;;;;;;5033875;28;20748;-64
2023/05/19 11:50:49;;;;;;;0.90;0.90;;;18.00;99.90;;;;;;5044899;28;20199;-63
2023/05/19 11:53:18;;;;;;;1.58;1.10;;;18.00;99.90;;;;;;5035723;28;20228;-64
2023/05/19 11:55:45;;;;;;;0.90;0.90;;;18.00;99.90;;;;;;5032146;28;20629;-64
2023/05/19 11:58:14;;;;;;;1.23;1.17;;;18.10;99.90;;;;;;5032272;28;20271;-63
2023/05/19 12:00:44;;;;;;;0.80;0.80;;;18.00;99.90;;;;;;5031625;28;20239;-63
2023/05/19 12:03:11;;;;;;;1.00;1.00;;;17.90;99.90;;;;;;5033408;28;20200;-63
2023/05/19 12:05:43;;;;;;;1.00;1.00;;;17.90;99.90;;;;;;5031111;28;20216;-63
2023/05/19 12:08:10;;;;;;;0.77;0.77;;;17.90;99.90;;;;;;5034194;28;20335;-63
2023/05/19 12:10:38;;;;;;;0.82;0.82;;;18.00;99.90;;;;;;5034363;28;20220;-63
2023/05/19 12:13:07;;;;;;;0.90;0.90;;;18.00;99.90;;;;;;5034708;28;20335;-63
2023/05/19 12:15:36;;;;;;;0.85;0.85;;;18.00;99.90;;;;;;5034283;28;20217;-64
2023/05/19 12:18:03;;;;;;;0.98;0.98;;;18.00;99.90;;;;;;5032685;28;20312;-63
2023/05/19 12:20:34;;;;;;;1.08;1.08;;;18.00;99.90;;;;;;5032657;28;20266;-65
2023/05/19 12:23:02;;;;;;;0.90;0.90;;;18.00;99.90;;;;;;5028029;28;20197;-65
2023/05/19 12:25:29;;;;;;;0.90;0.90;;;18.00;99.90;;;;;;5033347;28;20662;-63
2023/05/19 12:27:58;;;;;;;0.82;0.82;;;18.10;99.90;;;;;;5032086;28;20291;-63
2023/05/19 12:30:28;;;;;;;1.00;1.00;;;18.10;99.90;;;;;;5032356;28;20211;-62
2023/05/19 12:32:57;;;;;;;0.90;0.90;;;18.10;99.90;;;;;;5032816;28;20249;-64
2023/05/19 12:35:27;;;;;;;0.82;0.82;;;18.10;99.90;;;;;;5033117;28;20209;-63
2023/05/19 12:37:54;;;;;;;1.05;1.05;;;18.20;99.90;;;;;;5033560;28;20224;-63
2023/05/19 12:40:21;;;;;;;1.20;1.10;;;18.20;99.90;;;;;;5032907;28;20645;-63
2023/05/19 12:42:50;;;;;;;0.80;0.80;;;18.20;99.90;;;;;;5028900;28;20274;-63
2023/05/19 12:45:21;;;;;;;0.90;0.90;;;18.20;99.90;;;;;;5032566;28;20247;-63
2023/05/19 12:47:49;;;;;;;1.20;1.20;;;18.10;99.90;;;;;;5032686;28;20240;-62
2023/05/19 12:50:18;;;;;;;1.10;1.10;;;18.10;99.90;;;;;;5032222;28;20295;-65
2023/05/19 12:52:46;;;;;;;1.20;1.20;;;18.20;99.90;;;;;;5034631;28;20229;-63
2023/05/19 12:55:15;;;;;;;0.90;0.90;;;18.10;99.90;;;;;;5032546;28;20240;-63